Desierto de Atacama Airport
SCAT : rendu visible

Aérodrome :











RETROUVEZ-NOUS SUR...

 
LOGIN :

S'inscrire | Disclaimer

   EN    FR    IT 

 









Légende :    VFR   VFR Marginal   IFR   IFR Intensif   IFR Très Intensif
Visi : 
Plafond : 
>= 8 km
>= 3000ft
5 à 8 km
1000 à 3000 ft
1500m à 5 km
500 à 1000 ft
800 à 1500m
200 à 500 ft
< 800m
< 200 ft
Symboles :   Orages  Brouillard  Fortes neiges  Fortes précipitations  Vent > 20 kt






- Altitude de l'aérodrome : 670 ft
- Code IATA : DAT


SCAT - Desierto de Atacama

DERNIER METAR :
  • 040900Z AUTO 34005KT 9999 // ///017 17/12 Q1011

METARs EXPIRÉS :
  • 040800Z AUTO 34007KT 9999 // ///019 17/12 Q1011
  • 040700Z AUTO 33008KT 9999 // ///017 17/12 Q1012

TAF TAF SCAT
Valide du 04 à 06h jusqu'au 05 à 06h UTC


040411Z 0406/0506 33004KT 9999 OVC015 TN16/0406Z TX21/0418Z
BECMG 0412/0414 34014KT OVC023
BECMG 0416/0418 30010KT CAVOK
BECMG 0419/0421 26008KT
BECMG 0500/0502 22007KT OVC020



MET'MAP, la Météo Aéronautique d'un coup d'oeil ! - Copyright ORBIFLY Décembre 2007 - Disclaimer

ORBIFLY MET'MAP TEAM :

Programmation & Développement : Alexandra Zaïnal
Sur une idée originale de : Baudouin d'Aumeries
Assistance à la programmation : Marc-Olivier Méhu
Soutien technique & logistique : Manuel Goepfert

Contact : metmap@orbifly.com




SOURCES & CREDITS :

   NOAA       Earth
Advisory